Time;durP1;ratioP1;P1;durP2;ratioP2;P2;SDS_P1;SDS_P2;PMS_P1;PMS_P2;Temp;Humidity;BMP_temperature;BMP_pressure;BME280_temperature;BME280_humidity;BME280_pressure;Samples;Min_cycle;Max_cycle;Signal;HPM_P1;HPM_P2
2021/01/02 00:00:06;;;;;;;3.40;2.83;;;;;;;;;;5074072;28;20226;-48
2021/01/02 00:02:41;;;;;;;3.67;2.88;;;;;;;;;;5072436;28;20262;-49
2021/01/02 00:05:07;;;;;;;5.68;2.80;;;;;;;;;;5074601;28;20729;-49
2021/01/02 00:07:56;;;;;;;3.83;2.60;;;;;;;;;;5070691;28;20187;-49
2021/01/02 00:10:22;;;;;;;3.70;2.63;;;;;;;;;;5054731;28;20179;-49
2021/01/02 00:13:06;;;;;;;3.30;2.72;;;;;;;;;;5054290;28;20297;-49
2021/01/02 00:15:50;;;;;;;3.30;2.80;;;;;;;;;;5054694;28;20203;-50
2021/01/02 00:18:31;;;;;;;4.13;2.88;;;;;;;;;;5070960;28;20244;-49
2021/01/02 00:21:10;;;;;;;4.68;2.97;;;;;;;;;;5073562;28;20178;-49
2021/01/02 00:23:55;;;;;;;4.60;2.83;;;;;;;;;;5074065;28;20719;-49
2021/01/02 00:26:24;;;;;;;3.40;2.88;;;;;;;;;;5062654;28;20187;-50
2021/01/02 00:28:50;;;;;;;3.10;2.80;;;;;;;;;;5062111;28;20179;-49
2021/01/02 00:31:32;;;;;;;4.45;2.70;;;;;;;;;;5063754;28;20179;-49
2021/01/02 00:34:04;;;;;;;4.63;3.00;;;;;;;;;;5072970;28;20275;-49
2021/01/02 00:36:45;;;;;;;2.88;2.60;;;;;;;;;;5061396;28;20264;-48
2021/01/02 00:39:32;;;;;;;2.75;2.38;;;;;;;;;;5064907;28;20174;-49
2021/01/02 00:41:58;;;;;;;2.88;2.65;;;;;;;;;;5073741;28;20223;-49
2021/01/02 00:44:25;;;;;;;2.88;2.65;;;;;;;;;;5073120;28;20566;-49
2021/01/02 00:46:51;;;;;;;2.83;2.50;;;;;;;;;;5072621;28;20248;-48
2021/01/02 00:49:18;;;;;;;4.47;2.90;;;;;;;;;;5073226;28;20198;-49
2021/01/02 00:51:58;;;;;;;4.68;2.80;;;;;;;;;;5065157;28;20272;-49
2021/01/02 00:54:44;;;;;;;2.70;2.50;;;;;;;;;;5072679;28;20466;-49
2021/01/02 00:57:17;;;;;;;3.88;2.40;;;;;;;;;;5072951;28;20194;-48
2021/01/02 01:00:01;;;;;;;3.03;2.70;;;;;;;;;;5073510;28;20670;-49
2021/01/02 01:02:46;;;;;;;3.10;2.30;;;;;;;;;;5071902;28;20190;-49
2021/01/02 01:05:20;;;;;;;2.70;2.50;;;;;;;;;;5071960;28;20178;-49
2021/01/02 01:07:51;;;;;;;3.60;2.50;;;;;;;;;;5073376;28;20182;-49
2021/01/02 01:10:20;;;;;;;2.70;2.50;;;;;;;;;;5071053;28;20540;-49
2021/01/02 01:12:47;;;;;;;2.63;2.42;;;;;;;;;;5059865;28;20800;-48
2021/01/02 01:15:13;;;;;;;2.95;2.50;;;;;;;;;;5071331;28;20240;-49
2021/01/02 01:17:43;;;;;;;3.10;2.50;;;;;;;;;;5067037;28;20277;-49
2021/01/02 01:20:12;;;;;;;2.58;2.38;;;;;;;;;;5071205;28;20558;-49
2021/01/02 01:22:42;;;;;;;2.95;2.65;;;;;;;;;;5058633;28;20186;-49
2021/01/02 01:25:13;;;;;;;3.35;2.65;;;;;;;;;;5071242;28;20182;-48
2021/01/02 01:27:55;;;;;;;2.90;2.70;;;;;;;;;;5052998;28;20300;-49
2021/01/02 01:30:22;;;;;;;3.05;2.42;;;;;;;;;;5069392;28;20171;-48
2021/01/02 01:33:00;;;;;;;2.60;2.35;;;;;;;;;;5059632;28;20929;-50
2021/01/02 01:35:26;;;;;;;3.28;2.63;;;;;;;;;;5070426;28;20515;-49
2021/01/02 01:37:53;;;;;;;3.63;2.63;;;;;;;;;;5073499;28;20572;-48
2021/01/02 01:40:23;;;;;;;2.75;2.50;;;;;;;;;;5075604;28;20187;-50
2021/01/02 01:42:57;;;;;;;2.80;2.58;;;;;;;;;;5070741;28;20194;-48
2021/01/02 01:45:29;;;;;;;2.47;2.25;;;;;;;;;;5066751;28;20195;-49
2021/01/02 01:48:16;;;;;;;2.63;2.28;;;;;;;;;;5076874;28;20187;-49
2021/01/02 01:51:09;;;;;;;2.42;2.22;;;;;;;;;;5056558;28;20171;-48
2021/01/02 01:53:53;;;;;;;2.60;2.40;;;;;;;;;;5067578;28;20186;-49
2021/01/02 01:56:25;;;;;;;2.65;2.45;;;;;;;;;;5066402;28;20183;-48
2021/01/02 01:58:54;;;;;;;3.25;2.50;;;;;;;;;;5063034;28;20179;-48
2021/01/02 02:01:23;;;;;;;4.47;2.80;;;;;;;;;;5068774;28;20202;-49
2021/01/02 02:03:59;;;;;;;2.75;2.55;;;;;;;;;;5076474;28;20244;-49
2021/01/02 02:06:33;;;;;;;3.05;2.53;;;;;;;;;;5065885;28;20187;-50
2021/01/02 02:09:00;;;;;;;3.08;2.55;;;;;;;;;;5072957;28;20194;-48
2021/01/02 02:11:42;;;;;;;2.40;2.20;;;;;;;;;;5075615;28;20190;-49
2021/01/02 02:14:14;;;;;;;2.63;2.42;;;;;;;;;;5078407;28;20198;-49
2021/01/02 02:16:41;;;;;;;2.70;2.50;;;;;;;;;;5065286;28;20233;-49
2021/01/02 02:19:12;;;;;;;2.78;2.58;;;;;;;;;;5075815;28;20236;-49
2021/01/02 02:21:41;;;;;;;2.90;2.63;;;;;;;;;;5074968;28;20198;-50
2021/01/02 02:24:11;;;;;;;3.45;2.42;;;;;;;;;;5076186;28;20178;-49
2021/01/02 02:26:39;;;;;;;2.88;2.60;;;;;;;;;;5075053;28;20775;-48
2021/01/02 02:29:05;;;;;;;3.17;2.42;;;;;;;;;;5068505;28;20182;-49
2021/01/02 02:31:33;;;;;;;5.93;2.42;;;;;;;;;;5062995;28;20193;-48
2021/01/02 02:33:59;;;;;;;2.72;2.53;;;;;;;;;;5056300;28;20633;-50
2021/01/02 02:36:27;;;;;;;3.00;2.70;;;;;;;;;;5056606;28;20450;-49
2021/01/02 02:39:05;;;;;;;2.35;2.15;;;;;;;;;;5072354;28;20582;-49
2021/01/02 02:41:34;;;;;;;2.95;2.30;;;;;;;;;;5072095;28;20308;-49
2021/01/02 02:44:01;;;;;;;2.65;2.40;;;;;;;;;;5067836;28;20190;-48
2021/01/02 02:46:29;;;;;;;3.15;2.85;;;;;;;;;;5074107;28;20191;-48
2021/01/02 02:48:57;;;;;;;2.83;2.20;;;;;;;;;;5075268;28;20189;-49
2021/01/02 02:51:23;;;;;;;3.35;2.63;;;;;;;;;;5074726;28;20316;-49
2021/01/02 02:53:50;;;;;;;2.60;2.40;;;;;;;;;;5076004;28;20267;-49
2021/01/02 02:56:16;;;;;;;2.88;2.58;;;;;;;;;;5074620;28;20194;-49
2021/01/02 02:58:42;;;;;;;2.63;2.42;;;;;;;;;;5066489;28;20183;-50
2021/01/02 03:01:08;;;;;;;2.30;2.10;;;;;;;;;;5073649;28;20178;-49
2021/01/02 03:03:34;;;;;;;2.55;2.35;;;;;;;;;;5075215;28;20182;-49
2021/01/02 03:06:00;;;;;;;2.60;2.40;;;;;;;;;;5074645;28;20216;-48
2021/01/02 03:08:27;;;;;;;2.45;2.25;;;;;;;;;;5075658;28;20166;-48
2021/01/02 03:10:53;;;;;;;2.45;2.25;;;;;;;;;;5068025;28;20542;-49
2021/01/02 03:13:19;;;;;;;2.60;2.40;;;;;;;;;;5055971;28;20446;-49
2021/01/02 03:15:45;;;;;;;2.53;2.33;;;;;;;;;;5062247;28;20230;-48
2021/01/02 03:18:11;;;;;;;2.55;2.35;;;;;;;;;;5075124;28;20221;-48
2021/01/02 03:20:37;;;;;;;2.50;2.22;;;;;;;;;;5070353;28;20270;-48
2021/01/02 03:23:04;;;;;;;2.92;2.20;;;;;;;;;;5075619;28;20197;-49
2021/01/02 03:25:30;;;;;;;2.20;2.00;;;;;;;;;;5073426;28;20175;-49
2021/01/02 03:27:56;;;;;;;2.40;2.20;;;;;;;;;;5074013;28;20609;-49
2021/01/02 03:30:23;;;;;;;2.42;2.17;;;;;;;;;;5075689;28;20189;-50
2021/01/02 03:32:49;;;;;;;2.45;2.25;;;;;;;;;;5075331;28;20204;-50
2021/01/02 03:35:16;;;;;;;2.40;2.20;;;;;;;;;;5074272;28;20565;-49
2021/01/02 03:37:44;;;;;;;2.40;2.20;;;;;;;;;;5075413;28;20177;-48
2021/01/02 03:40:10;;;;;;;3.05;2.67;;;;;;;;;;5074949;28;20189;-49
2021/01/02 03:42:40;;;;;;;2.45;2.25;;;;;;;;;;5055663;28;20240;-49
2021/01/02 03:45:07;;;;;;;2.60;2.40;;;;;;;;;;5072320;28;20262;-48
2021/01/02 03:47:33;;;;;;;2.35;2.15;;;;;;;;;;5053857;28;20823;-48
2021/01/02 03:49:59;;;;;;;2.55;2.35;;;;;;;;;;5058772;28;20213;-49
2021/01/02 03:52:26;;;;;;;2.25;2.08;;;;;;;;;;5074477;28;20182;-48
2021/01/02 03:54:52;;;;;;;2.38;2.17;;;;;;;;;;5068563;28;20199;-48
2021/01/02 03:57:18;;;;;;;2.45;2.05;;;;;;;;;;5074532;28;20577;-49
2021/01/02 03:59:44;;;;;;;2.28;2.15;;;;;;;;;;5059792;28;20214;-48
2021/01/02 04:02:10;;;;;;;2.38;2.17;;;;;;;;;;5053158;28;20214;-49
2021/01/02 04:04:36;;;;;;;3.40;1.83;;;;;;;;;;5054091;28;20184;-49
2021/01/02 04:07:02;;;;;;;2.42;2.22;;;;;;;;;;5038318;28;20202;-48
2021/01/02 04:09:28;;;;;;;2.40;2.20;;;;;;;;;;5034759;28;20555;-49
2021/01/02 04:11:54;;;;;;;2.67;2.47;;;;;;;;;;5034945;28;20194;-50
2021/01/02 04:14:20;;;;;;;2.47;2.28;;;;;;;;;;5034275;28;20204;-49
2021/01/02 04:16:46;;;;;;;2.42;2.20;;;;;;;;;;5062090;28;20253;-49
2021/01/02 04:19:13;;;;;;;2.58;2.38;;;;;;;;;;5053362;28;20183;-49
2021/01/02 04:21:39;;;;;;;2.58;2.38;;;;;;;;;;5039713;28;20184;-49
2021/01/02 04:24:06;;;;;;;2.20;2.00;;;;;;;;;;5050656;28;20210;-50
2021/01/02 04:26:32;;;;;;;2.22;2.03;;;;;;;;;;5049891;28;20517;-50
2021/01/02 04:28:58;;;;;;;2.70;2.50;;;;;;;;;;5054353;28;20291;-49
2021/01/02 04:31:42;;;;;;;2.30;2.10;;;;;;;;;;5044973;28;20563;-49
2021/01/02 04:34:09;;;;;;;2.13;2.03;;;;;;;;;;5033773;28;20726;-49
2021/01/02 04:36:36;;;;;;;2.53;2.33;;;;;;;;;;5041155;28;20183;-49
2021/01/02 04:39:02;;;;;;;2.35;2.15;;;;;;;;;;5054215;28;20174;-49
2021/01/02 04:41:28;;;;;;;2.40;2.20;;;;;;;;;;5053210;28;20558;-49
2021/01/02 04:43:54;;;;;;;2.47;2.17;;;;;;;;;;5053287;28;20215;-50
2021/01/02 04:46:24;;;;;;;2.50;2.30;;;;;;;;;;5047950;28;20195;-49
2021/01/02 04:48:50;;;;;;;2.30;2.10;;;;;;;;;;5034121;28;20271;-49
2021/01/02 04:51:17;;;;;;;2.35;2.15;;;;;;;;;;5034195;28;20700;-49
2021/01/02 04:53:43;;;;;;;2.45;2.25;;;;;;;;;;5033501;28;20238;-49
2021/01/02 04:56:10;;;;;;;2.45;2.25;;;;;;;;;;5040763;28;20206;-49
2021/01/02 04:58:37;;;;;;;2.95;2.00;;;;;;;;;;5072977;28;20187;-49
2021/01/02 05:01:05;;;;;;;2.13;2.00;;;;;;;;;;5065872;28;20721;-49
2021/01/02 05:03:31;;;;;;;2.17;1.98;;;;;;;;;;5062954;28;20185;-50
2021/01/02 05:05:57;;;;;;;2.45;2.25;;;;;;;;;;5066108;28;20190;-49
2021/01/02 05:08:24;;;;;;;2.95;1.90;;;;;;;;;;5073929;28;20175;-49
2021/01/02 05:11:03;;;;;;;3.80;2.08;;;;;;;;;;5065868;28;20234;-48
2021/01/02 05:13:33;;;;;;;2.28;2.08;;;;;;;;;;5067727;28;20229;-49
2021/01/02 05:16:15;;;;;;;2.05;1.88;;;;;;;;;;5064541;28;20558;-49
2021/01/02 05:19:00;;;;;;;2.20;2.10;;;;;;;;;;5068430;28;20178;-49
2021/01/02 05:21:27;;;;;;;2.55;2.30;;;;;;;;;;5072853;28;20494;-49
2021/01/02 05:24:03;;;;;;;2.38;2.17;;;;;;;;;;5073642;28;20193;-50
2021/01/02 05:26:29;;;;;;;2.38;2.17;;;;;;;;;;5071488;28;20456;-49
2021/01/02 05:29:15;;;;;;;2.92;2.00;;;;;;;;;;5072756;28;20199;-48
2021/01/02 05:31:42;;;;;;;2.35;2.15;;;;;;;;;;5072579;28;20170;-49
2021/01/02 05:34:09;;;;;;;2.20;2.00;;;;;;;;;;5053153;28;20234;-49
2021/01/02 05:36:35;;;;;;;2.35;2.15;;;;;;;;;;5057858;28;20179;-49
2021/01/02 05:39:01;;;;;;;2.38;2.17;;;;;;;;;;5053144;28;20174;-50
2021/01/02 05:41:28;;;;;;;2.35;2.15;;;;;;;;;;5063842;28;20205;-49
2021/01/02 05:44:10;;;;;;;2.17;1.98;;;;;;;;;;5073278;28;20186;-49
2021/01/02 05:46:43;;;;;;;2.30;2.10;;;;;;;;;;5063479;28;20265;-48
2021/01/02 05:49:26;;;;;;;2.67;1.90;;;;;;;;;;5072119;28;20557;-49
2021/01/02 05:51:53;;;;;;;2.30;2.10;;;;;;;;;;5057287;28;20210;-49
2021/01/02 05:54:22;;;;;;;2.10;1.90;;;;;;;;;;5052842;28;20203;-49
2021/01/02 05:56:48;;;;;;;2.30;2.10;;;;;;;;;;5071589;28;20198;-49
2021/01/02 05:59:26;;;;;;;2.33;2.13;;;;;;;;;;5072986;28;20188;-49
2021/01/02 06:01:52;;;;;;;2.30;2.10;;;;;;;;;;5056998;28;20226;-49
2021/01/02 06:04:18;;;;;;;2.47;2.28;;;;;;;;;;5055988;28;20239;-49
2021/01/02 06:06:45;;;;;;;2.10;1.90;;;;;;;;;;5072803;28;20194;-49
2021/01/02 06:09:12;;;;;;;2.15;1.95;;;;;;;;;;5053816;28;20179;-49
2021/01/02 06:11:39;;;;;;;2.13;2.03;;;;;;;;;;5052790;28;20253;-50
2021/01/02 06:14:07;;;;;;;2.15;2.00;;;;;;;;;;5057962;28;20243;-49
2021/01/02 06:16:34;;;;;;;2.45;2.25;;;;;;;;;;5071508;28;20240;-48
2021/01/02 06:19:00;;;;;;;2.40;2.20;;;;;;;;;;5052836;28;20542;-49
2021/01/02 06:21:26;;;;;;;2.40;2.20;;;;;;;;;;5064239;28;20177;-50
2021/01/02 06:23:52;;;;;;;2.38;2.17;;;;;;;;;;5072930;28;20564;-50
2021/01/02 06:26:18;;;;;;;2.53;2.20;;;;;;;;;;5073364;28;20190;-48
2021/01/02 06:28:45;;;;;;;2.38;2.17;;;;;;;;;;5075516;28;20193;-48
2021/01/02 06:31:14;;;;;;;2.58;2.20;;;;;;;;;;5076251;28;20565;-49
2021/01/02 06:33:44;;;;;;;2.10;1.90;;;;;;;;;;5070289;28;20178;-49
2021/01/02 06:36:27;;;;;;;2.53;2.30;;;;;;;;;;5075762;28;20175;-48
2021/01/02 06:39:12;;;;;;;2.28;2.08;;;;;;;;;;5076429;28;20201;-50
2021/01/02 06:41:38;;;;;;;2.00;1.90;;;;;;;;;;5058332;28;20554;-49
2021/01/02 06:44:04;;;;;;;2.65;2.45;;;;;;;;;;5075876;28;20182;-49
2021/01/02 06:46:33;;;;;;;2.45;2.25;;;;;;;;;;5075155;28;20182;-49
2021/01/02 06:48:59;;;;;;;2.08;1.98;;;;;;;;;;5075117;28;20198;-50
2021/01/02 06:51:26;;;;;;;2.58;2.10;;;;;;;;;;5063450;28;20194;-49
2021/01/02 06:53:52;;;;;;;2.10;2.00;;;;;;;;;;5056218;28;20198;-48
2021/01/02 06:56:18;;;;;;;2.10;2.00;;;;;;;;;;5057371;28;20199;-48
2021/01/02 06:58:46;;;;;;;2.13;1.95;;;;;;;;;;5070228;28;20197;-48
2021/01/02 07:01:18;;;;;;;2.10;1.95;;;;;;;;;;5068819;28;20194;-49
2021/01/02 07:03:48;;;;;;;2.20;2.00;;;;;;;;;;5075724;28;20174;-49
2021/01/02 07:06:26;;;;;;;2.40;2.20;;;;;;;;;;5074712;28;20258;-48
2021/01/02 07:08:56;;;;;;;2.40;2.20;;;;;;;;;;5075758;28;20217;-49
2021/01/02 07:11:34;;;;;;;2.25;2.05;;;;;;;;;;5074938;28;20282;-49
2021/01/02 07:14:12;;;;;;;2.45;2.25;;;;;;;;;;5074140;28;20205;-49
2021/01/02 07:16:57;;;;;;;2.42;2.22;;;;;;;;;;5076535;28;20281;-50
2021/01/02 07:19:27;;;;;;;2.55;2.35;;;;;;;;;;5068017;28;20281;-49
2021/01/02 07:21:59;;;;;;;2.78;2.20;;;;;;;;;;5067217;28;20183;-49
2021/01/02 07:24:26;;;;;;;2.33;2.13;;;;;;;;;;5074633;28;20197;-49
2021/01/02 07:26:57;;;;;;;2.20;2.10;;;;;;;;;;5073000;28;20585;-49
2021/01/02 07:29:23;;;;;;;2.53;2.10;;;;;;;;;;5075626;28;20179;-49
2021/01/02 07:31:49;;;;;;;2.33;2.13;;;;;;;;;;5060099;28;20179;-48
2021/01/02 07:34:18;;;;;;;2.53;2.33;;;;;;;;;;5069327;28;20212;-49
2021/01/02 07:36:44;;;;;;;2.42;2.22;;;;;;;;;;5073049;28;20186;-49
2021/01/02 07:39:10;;;;;;;3.22;2.30;;;;;;;;;;5074716;28;20189;-49
2021/01/02 07:41:37;;;;;;;2.53;2.33;;;;;;;;;;5061664;28;20187;-48
2021/01/02 07:44:04;;;;;;;2.22;2.03;;;;;;;;;;5072859;28;20244;-49
2021/01/02 07:46:33;;;;;;;2.25;2.10;;;;;;;;;;5074608;28;20197;-49
2021/01/02 07:48:59;;;;;;;3.00;2.22;;;;;;;;;;5074572;28;20190;-48
2021/01/02 07:51:29;;;;;;;2.72;2.50;;;;;;;;;;5070363;28;20262;-49
2021/01/02 07:53:55;;;;;;;2.85;2.65;;;;;;;;;;5074027;28;22141;-48
2021/01/02 07:56:37;;;;;;;2.45;2.25;;;;;;;;;;5073817;28;20621;-48
2021/01/02 07:59:22;;;;;;;2.50;2.30;;;;;;;;;;5075320;28;20262;-50
2021/01/02 08:01:50;;;;;;;2.50;2.30;;;;;;;;;;5059430;28;20203;-48
2021/01/02 08:04:17;;;;;;;2.10;2.00;;;;;;;;;;5074391;28;20609;-50
2021/01/02 08:06:44;;;;;;;3.13;2.50;;;;;;;;;;5073903;28;20269;-48
2021/01/02 08:09:10;;;;;;;2.63;2.42;;;;;;;;;;5074974;28;20179;-50
2021/01/02 08:11:36;;;;;;;2.60;2.40;;;;;;;;;;5060944;28;20191;-48
2021/01/02 08:14:02;;;;;;;2.70;2.45;;;;;;;;;;5061838;28;20213;-49
2021/01/02 08:16:28;;;;;;;2.33;2.22;;;;;;;;;;5071776;28;20190;-51
2021/01/02 08:19:04;;;;;;;3.05;2.10;;;;;;;;;;5073298;28;20185;-49
2021/01/02 08:21:37;;;;;;;4.78;2.50;;;;;;;;;;5064674;28;20261;-48
2021/01/02 08:24:03;;;;;;;3.50;2.40;;;;;;;;;;5074108;28;20454;-49
2021/01/02 08:26:29;;;;;;;3.40;2.42;;;;;;;;;;5064120;28;20615;-51
2021/01/02 08:28:56;;;;;;;2.45;2.25;;;;;;;;;;5056856;28;20320;-49
2021/01/02 08:31:23;;;;;;;2.47;2.20;;;;;;;;;;5068929;28;20312;-49
2021/01/02 08:33:51;;;;;;;8.18;2.17;;;;;;;;;;5065284;28;20191;-48
2021/01/02 08:36:17;;;;;;;2.38;2.17;;;;;;;;;;5068974;28;20175;-50
2021/01/02 08:38:45;;;;;;;3.90;2.50;;;;;;;;;;5073680;28;20182;-49
2021/01/02 08:41:21;;;;;;;12.45;7.05;;;;;;;;;;5073241;28;20206;-49
2021/01/02 08:43:50;;;;;;;12.90;8.45;;;;;;;;;;5053665;28;20582;-49
2021/01/02 08:46:22;;;;;;;10.38;7.60;;;;;;;;;;5053653;28;20191;-50
2021/01/02 08:48:48;;;;;;;11.18;7.28;;;;;;;;;;5069842;28;20174;-50
2021/01/02 08:51:27;;;;;;;9.18;6.13;;;;;;;;;;5071725;28;20182;-49
2021/01/02 08:53:53;;;;;;;9.05;5.80;;;;;;;;;;5073007;28;20186;-49
2021/01/02 08:56:26;;;;;;;7.28;5.32;;;;;;;;;;5068937;28;20237;-48
2021/01/02 08:58:53;;;;;;;7.80;5.50;;;;;;;;;;5073824;28;20244;-49
2021/01/02 09:01:19;;;;;;;6.05;4.30;;;;;;;;;;5068585;28;20206;-48
2021/01/02 09:03:45;;;;;;;7.32;3.83;;;;;;;;;;5071362;28;20221;-48
2021/01/02 09:06:21;;;;;;;5.70;3.67;;;;;;;;;;5071482;28;20509;-50
2021/01/02 09:09:08;;;;;;;6.22;3.67;;;;;;;;;;5073096;28;20213;-49
2021/01/02 09:11:47;;;;;;;5.45;3.63;;;;;;;;;;5065133;28;20636;-50
2021/01/02 09:14:13;;;;;;;6.93;3.67;;;;;;;;;;5065780;28;20211;-49
2021/01/02 09:16:39;;;;;;;8.35;3.33;;;;;;;;;;5066079;28;20580;-48
2021/01/02 09:19:05;;;;;;;5.78;3.45;;;;;;;;;;5072898;28;20185;-49
2021/01/02 09:21:31;;;;;;;4.82;3.25;;;;;;;;;;5073310;28;20190;-48
2021/01/02 09:23:57;;;;;;;7.10;3.40;;;;;;;;;;5073272;28;20187;-49
2021/01/02 09:26:30;;;;;;;4.78;3.22;;;;;;;;;;5071031;28;20174;-49
2021/01/02 09:28:57;;;;;;;3.88;2.97;;;;;;;;;;5073461;28;20273;-50
2021/01/02 09:31:24;;;;;;;4.78;3.28;;;;;;;;;;5072763;28;20205;-50
2021/01/02 09:33:50;;;;;;;4.72;3.38;;;;;;;;;;5073558;28;20846;-49
2021/01/02 09:36:17;;;;;;;4.78;2.95;;;;;;;;;;5061803;28;20485;-50
2021/01/02 09:38:44;;;;;;;4.00;3.20;;;;;;;;;;5070388;28;20554;-50
2021/01/02 09:41:11;;;;;;;5.50;3.25;;;;;;;;;;5060072;28;20209;-50
2021/01/02 09:43:37;;;;;;;3.67;3.10;;;;;;;;;;5052800;28;20206;-50
2021/01/02 09:46:03;;;;;;;4.85;2.97;;;;;;;;;;5061454;28;20480;-49
2021/01/02 09:48:29;;;;;;;4.15;3.13;;;;;;;;;;5072718;28;20303;-50
2021/01/02 09:50:55;;;;;;;4.20;2.90;;;;;;;;;;5064970;28;20784;-49
2021/01/02 09:53:21;;;;;;;3.55;2.90;;;;;;;;;;5053532;28;20194;-48
2021/01/02 09:55:47;;;;;;;3.80;3.17;;;;;;;;;;5070744;28;20318;-49
2021/01/02 09:58:13;;;;;;;4.05;3.20;;;;;;;;;;5065842;28;20285;-49
2021/01/02 10:00:39;;;;;;;6.65;3.50;;;;;;;;;;5060014;28;20187;-50
2021/01/02 10:03:10;;;;;;;4.68;3.20;;;;;;;;;;5069457;28;20179;-48
2021/01/02 10:05:36;;;;;;;5.03;3.35;;;;;;;;;;5075827;28;20210;-50
2021/01/02 10:08:02;;;;;;;5.05;3.47;;;;;;;;;;5072079;28;20265;-50
2021/01/02 10:10:28;;;;;;;4.63;3.40;;;;;;;;;;5060813;28;20210;-49
2021/01/02 10:12:54;;;;;;;4.53;3.13;;;;;;;;;;5040571;28;20191;-50
2021/01/02 10:15:20;;;;;;;3.70;3.13;;;;;;;;;;5065672;28;20473;-49
2021/01/02 10:17:47;;;;;;;4.18;3.80;;;;;;;;;;5075868;28;20182;-49
2021/01/02 10:20:13;;;;;;;4.63;3.50;;;;;;;;;;5076331;28;20166;-50
2021/01/02 10:22:39;;;;;;;4.78;3.63;;;;;;;;;;5067186;28;20198;-49
2021/01/02 10:25:06;;;;;;;4.22;3.10;;;;;;;;;;5063199;28;20197;-48
2021/01/02 10:27:32;;;;;;;8.02;3.25;;;;;;;;;;5075483;28;20179;-48
2021/01/02 10:29:59;;;;;;;5.28;3.75;;;;;;;;;;5075494;28;20180;-46
2021/01/02 10:32:26;;;;;;;7.15;3.78;;;;;;;;;;5076055;28;20190;-46
2021/01/02 10:34:52;;;;;;;6.05;4.13;;;;;;;;;;5075956;28;20214;-46
2021/01/02 10:37:23;;;;;;;4.55;3.72;;;;;;;;;;5074416;28;20218;-48
2021/01/02 10:39:50;;;;;;;5.53;3.78;;;;;;;;;;5062846;28;20194;-49
2021/01/02 10:42:17;;;;;;;8.18;4.30;;;;;;;;;;5076649;28;20178;-49
2021/01/02 10:44:44;;;;;;;5.70;4.00;;;;;;;;;;5075425;28;20251;-49
2021/01/02 10:47:10;;;;;;;21.40;4.80;;;;;;;;;;5075804;28;20213;-48
2021/01/02 10:49:36;;;;;;;6.78;4.00;;;;;;;;;;5073566;28;20214;-49
2021/01/02 10:52:02;;;;;;;9.35;3.70;;;;;;;;;;5076068;28;20214;-47
2021/01/02 10:54:28;;;;;;;6.82;4.03;;;;;;;;;;5074620;28;20203;-48
2021/01/02 10:56:54;;;;;;;7.38;4.45;;;;;;;;;;5073417;28;20550;-48
2021/01/02 10:59:23;;;;;;;8.70;3.97;;;;;;;;;;5074708;28;20501;-48
2021/01/02 11:01:51;;;;;;;7.50;3.88;;;;;;;;;;5063796;28;20197;-47
2021/01/02 11:04:18;;;;;;;6.35;3.75;;;;;;;;;;5078434;28;20190;-48
2021/01/02 11:06:44;;;;;;;5.35;3.20;;;;;;;;;;5060744;28;20197;-47
2021/01/02 11:09:12;;;;;;;6.78;3.55;;;;;;;;;;5068040;28;20248;-48
2021/01/02 11:11:38;;;;;;;4.57;3.28;;;;;;;;;;5073892;28;20201;-48
2021/01/02 11:14:52;;;;;;;7.65;3.40;;;;;;;;;;5091735;27;20551;-47
2021/01/02 11:17:18;;;;;;;8.73;3.58;;;;;;;;;;5086103;28;20600;-47
2021/01/02 11:19:45;;;;;;;3.67;2.80;;;;;;;;;;5077295;28;20214;-47
2021/01/02 11:22:11;;;;;;;6.57;3.35;;;;;;;;;;5085584;28;20237;-47
2021/01/02 11:24:41;;;;;;;4.45;2.90;;;;;;;;;;5089956;28;20185;-47
2021/01/02 11:27:07;;;;;;;4.43;2.78;;;;;;;;;;5072143;28;20201;-47
2021/01/02 11:29:33;;;;;;;6.30;2.95;;;;;;;;;;5081362;28;20184;-46
2021/01/02 11:32:02;;;;;;;8.52;3.72;;;;;;;;;;5076821;28;20185;-46
2021/01/02 11:34:28;;;;;;;64.35;42.17;;;;;;;;;;5072925;28;20202;-47
2021/01/02 11:36:56;;;;;;;88.72;51.13;;;;;;;;;;5056095;28;20271;-47
2021/01/02 11:39:22;;;;;;;66.15;40.58;;;;;;;;;;5085387;28;20468;-46
2021/01/02 11:41:48;;;;;;;49.60;30.25;;;;;;;;;;5085283;28;20271;-46
2021/01/02 11:44:16;;;;;;;36.03;21.58;;;;;;;;;;5085126;28;20225;-46
2021/01/02 11:46:43;;;;;;;30.58;18.02;;;;;;;;;;5064322;28;20562;-47
2021/01/02 11:49:10;;;;;;;23.38;14.25;;;;;;;;;;5071741;28;20189;-47
2021/01/02 11:51:36;;;;;;;20.33;12.95;;;;;;;;;;5076995;28;20178;-46
2021/01/02 11:54:03;;;;;;;19.08;11.45;;;;;;;;;;5091515;28;20224;-48
2021/01/02 11:56:29;;;;;;;20.00;11.23;;;;;;;;;;5073185;28;20195;-48
2021/01/02 11:58:56;;;;;;;20.17;10.93;;;;;;;;;;5058140;28;20233;-47
2021/01/02 12:01:24;;;;;;;15.35;9.82;;;;;;;;;;5076126;28;20171;-47
2021/01/02 12:03:50;;;;;;;16.88;10.30;;;;;;;;;;5062409;28;20192;-47
2021/01/02 12:06:16;;;;;;;16.02;9.35;;;;;;;;;;5070689;28;20189;-47
2021/01/02 12:08:43;;;;;;;17.42;8.98;;;;;;;;;;5064758;28;20197;-48
2021/01/02 12:11:09;;;;;;;14.02;8.63;;;;;;;;;;5067061;28;20494;-47
2021/01/02 12:13:39;;;;;;;13.60;8.63;;;;;;;;;;5082780;28;20202;-46
2021/01/02 12:16:05;;;;;;;13.38;8.88;;;;;;;;;;5068412;28;20454;-46
2021/01/02 12:18:31;;;;;;;11.85;7.93;;;;;;;;;;5065656;28;20254;-48
2021/01/02 12:20:57;;;;;;;14.70;8.50;;;;;;;;;;5062172;28;20278;-48
2021/01/02 12:23:23;;;;;;;13.18;8.07;;;;;;;;;;5056733;28;20187;-46
2021/01/02 12:25:49;;;;;;;12.98;8.55;;;;;;;;;;5069518;28;20485;-46
2021/01/02 12:28:15;;;;;;;12.02;8.05;;;;;;;;;;5056486;28;20187;-46
2021/01/02 12:30:41;;;;;;;12.82;7.90;;;;;;;;;;5057130;28;20194;-48
2021/01/02 12:33:08;;;;;;;11.50;7.65;;;;;;;;;;5057125;28;20538;-45
2021/01/02 12:35:34;;;;;;;13.63;8.07;;;;;;;;;;5056160;28;20527;-47
2021/01/02 12:37:59;;;;;;;13.65;7.60;;;;;;;;;;5056855;28;20225;-48
2021/01/02 12:40:25;;;;;;;9.90;6.88;;;;;;;;;;5058588;28;20404;-48
2021/01/02 12:42:52;;;;;;;12.40;6.90;;;;;;;;;;5071438;28;20190;-47
2021/01/02 12:45:18;;;;;;;11.90;6.93;;;;;;;;;;5073141;28;20190;-48
2021/01/02 12:47:44;;;;;;;17.35;7.18;;;;;;;;;;5046594;28;20241;-48
2021/01/02 12:50:11;;;;;;;22.38;8.80;;;;;;;;;;5051440;28;20190;-47
2021/01/02 12:52:38;;;;;;;26.60;9.90;;;;;;;;;;5072870;28;20265;-49
2021/01/02 12:55:05;;;;;;;30.15;11.77;;;;;;;;;;5071965;28;20175;-47
2021/01/02 12:57:31;;;;;;;31.55;10.27;;;;;;;;;;5068566;28;20183;-46
2021/01/02 12:59:57;;;;;;;33.17;10.73;;;;;;;;;;5060246;28;20186;-48
2021/01/02 13:02:24;;;;;;;39.72;13.98;;;;;;;;;;5044241;28;20179;-48
2021/01/02 13:04:51;;;;;;;37.13;12.52;;;;;;;;;;5058541;28;20238;-47
2021/01/02 13:07:17;;;;;;;31.70;11.55;;;;;;;;;;5056063;28;20187;-47
2021/01/02 13:09:44;;;;;;;35.95;12.13;;;;;;;;;;5046773;28;20520;-46
2021/01/02 13:12:11;;;;;;;29.83;11.13;;;;;;;;;;5054554;28;20206;-48
2021/01/02 13:14:39;;;;;;;35.88;13.18;;;;;;;;;;5049734;28;20211;-48
2021/01/02 13:17:07;;;;;;;43.17;14.52;;;;;;;;;;5053132;28;20258;-48
2021/01/02 13:19:33;;;;;;;37.83;12.77;;;;;;;;;;5056355;28;20205;-45
2021/01/02 13:22:05;;;;;;;51.95;16.02;;;;;;;;;;5039421;28;20211;-48
2021/01/02 13:24:31;;;;;;;44.05;14.15;;;;;;;;;;5052274;28;20792;-48
2021/01/02 13:26:59;;;;;;;49.30;15.80;;;;;;;;;;5056405;28;20428;-47
2021/01/02 13:29:25;;;;;;;56.55;16.92;;;;;;;;;;5056309;28;20542;-46
2021/01/02 13:31:52;;;;;;;52.97;17.23;;;;;;;;;;5040796;28;20195;-48
2021/01/02 13:34:18;;;;;;;46.17;16.13;;;;;;;;;;5036039;28;20200;-48
2021/01/02 13:36:45;;;;;;;50.20;16.10;;;;;;;;;;5038780;28;20187;-46
2021/01/02 13:39:12;;;;;;;48.40;15.63;;;;;;;;;;5056051;28;20168;-48
2021/01/02 13:41:38;;;;;;;40.78;14.75;;;;;;;;;;5055826;28;20192;-48
2021/01/02 13:44:05;;;;;;;38.03;13.95;;;;;;;;;;5055431;28;20337;-48
2021/01/02 13:46:31;;;;;;;44.17;14.95;;;;;;;;;;5054000;28;20183;-47
2021/01/02 13:48:57;;;;;;;48.25;14.98;;;;;;;;;;5053181;28;20180;-47
2021/01/02 13:51:23;;;;;;;37.75;13.80;;;;;;;;;;5043036;28;20195;-48
2021/01/02 13:53:49;;;;;;;32.42;13.23;;;;;;;;;;5048867;28;20264;-47
2021/01/02 13:56:15;;;;;;;33.03;13.15;;;;;;;;;;5054870;28;20573;-48
2021/01/02 13:58:42;;;;;;;34.90;12.75;;;;;;;;;;5055907;28;20163;-47
2021/01/02 14:01:08;;;;;;;32.95;12.35;;;;;;;;;;5049134;28;20176;-47
2021/01/02 14:03:36;;;;;;;29.67;11.75;;;;;;;;;;5035500;28;20172;-48
2021/01/02 14:06:02;;;;;;;38.58;12.15;;;;;;;;;;5050427;28;21443;-47
2021/01/02 14:08:28;;;;;;;32.20;12.45;;;;;;;;;;5055402;28;20190;-47
2021/01/02 14:10:54;;;;;;;32.53;12.05;;;;;;;;;;5048463;28;20195;-47
2021/01/02 14:13:20;;;;;;;27.63;12.32;;;;;;;;;;5041135;28;20207;-47
2021/01/02 14:15:46;;;;;;;27.80;11.13;;;;;;;;;;5061482;28;20215;-47
2021/01/02 14:18:12;;;;;;;34.05;12.18;;;;;;;;;;5047669;28;20186;-47
2021/01/02 14:20:38;;;;;;;28.60;10.70;;;;;;;;;;5054371;28;20214;-48
2021/01/02 14:23:04;;;;;;;25.52;11.10;;;;;;;;;;5043344;28;20188;-47
2021/01/02 14:25:30;;;;;;;30.73;11.18;;;;;;;;;;5034465;28;20582;-47
2021/01/02 14:27:56;;;;;;;28.65;10.90;;;;;;;;;;5059668;28;20190;-47
2021/01/02 14:30:22;;;;;;;22.00;10.05;;;;;;;;;;5071086;28;20792;-47
2021/01/02 14:32:48;;;;;;;26.73;11.20;;;;;;;;;;5049328;28;20208;-47
2021/01/02 14:35:15;;;;;;;29.75;11.68;;;;;;;;;;5035728;28;20248;-47
2021/01/02 14:37:41;;;;;;;23.30;10.13;;;;;;;;;;5034875;28;20233;-47
2021/01/02 14:40:07;;;;;;;25.73;10.38;;;;;;;;;;5035243;28;20547;-47
2021/01/02 14:42:33;;;;;;;23.90;9.55;;;;;;;;;;5054065;28;20597;-47
2021/01/02 14:44:59;;;;;;;21.27;9.77;;;;;;;;;;5053960;28;20172;-48
2021/01/02 14:47:25;;;;;;;21.33;9.18;;;;;;;;;;5040855;28;20221;-47